createdAt,value
2022-11-13T00:04:51.390Z,101513.14
2022-11-13T00:09:54.810Z,101510.20
2022-11-13T00:14:58.117Z,101505.95
2022-11-13T00:20:01.428Z,101506.70
2022-11-13T00:25:05.350Z,101505.66
2022-11-13T00:30:09.479Z,101511.09
2022-11-13T00:35:12.692Z,101513.77
2022-11-13T00:40:16.615Z,101518.08
2022-11-13T00:45:19.822Z,101517.38
2022-11-13T00:50:23.336Z,101510.46
2022-11-13T00:55:26.647Z,101507.22
2022-11-13T01:00:29.753Z,101506.98
2022-11-13T01:05:37.379Z,101502.76
2022-11-13T01:10:53.095Z,101496.74
2022-11-13T01:15:56.890Z,101497.90
2022-11-13T01:21:13.822Z,101490.13
2022-11-13T01:26:29.313Z,101493.64
2022-11-13T01:31:32.730Z,101493.81
2022-11-13T01:36:35.940Z,101493.28
2022-11-13T01:41:40.271Z,101483.55
2022-11-13T01:46:50.651Z,101479.39
2022-11-13T01:52:25.806Z,101479.48
2022-11-13T01:57:29.425Z,101473.41
2022-11-13T02:02:32.634Z,101467.73
2022-11-13T02:07:36.149Z,101470.98
2022-11-13T02:12:42.740Z,101470.57
2022-11-13T02:17:55.267Z,101469.31
2022-11-13T02:23:20.155Z,101470.27
2022-11-13T02:28:23.388Z,101469.99
2022-11-13T02:33:30.693Z,101463.61
2022-11-13T02:38:36.360Z,101462.23
2022-11-13T02:43:39.566Z,101462.20
2022-11-13T02:48:42.983Z,101459.75
2022-11-13T02:53:46.395Z,101460.52
2022-11-13T02:58:50.113Z,101465.70
2022-11-13T03:03:57.813Z,101462.29
2022-11-13T03:09:01.446Z,101460.98
2022-11-13T03:14:04.960Z,101462.45
2022-11-13T03:19:08.272Z,101462.63
2022-11-13T03:24:11.583Z,101469.05
2022-11-13T03:29:15.712Z,101470.07
2022-11-13T03:34:19.021Z,101474.00
2022-11-13T03:39:22.849Z,101474.61
2022-11-13T03:44:26.261Z,101475.76
2022-11-13T03:49:29.672Z,101472.39
2022-11-13T03:54:32.983Z,101472.13
2022-11-13T03:59:36.294Z,101469.59
2022-11-13T04:04:39.501Z,101467.58
2022-11-13T04:09:42.811Z,101471.41
2022-11-13T04:14:46.020Z,101475.77
2022-11-13T04:19:49.335Z,101474.45
2022-11-13T04:24:52.748Z,101475.88
2022-11-13T04:29:56.257Z,101482.06
2022-11-13T04:34:59.570Z,101480.98
2022-11-13T04:40:04.228Z,101482.98
2022-11-13T04:45:08.236Z,101487.67
2022-11-13T04:50:11.957Z,101483.91
2022-11-13T04:55:15.371Z,101490.32
2022-11-13T05:00:19.195Z,101494.11
2022-11-13T05:05:22.300Z,101488.36
2022-11-13T05:10:25.508Z,101487.64
2022-11-13T05:15:28.923Z,101494.28
2022-11-13T05:20:32.133Z,101488.21
2022-11-13T05:25:35.443Z,101488.10
2022-11-13T05:30:38.647Z,101494.42
2022-11-13T05:35:41.960Z,101494.71
2022-11-13T05:40:45.169Z,101497.48
2022-11-13T05:45:48.479Z,101502.95
2022-11-13T05:50:51.791Z,101509.19
2022-11-13T05:55:55.204Z,101508.95
2022-11-13T06:01:10.493Z,101512.38
2022-11-13T06:06:16.099Z,101515.57
2022-11-13T06:11:21.567Z,101515.17
2022-11-13T06:16:36.195Z,101513.40
2022-11-13T06:21:41.246Z,101509.19
2022-11-13T06:26:44.352Z,101508.63
2022-11-13T06:31:47.562Z,101505.30
2022-11-13T06:36:50.773Z,101502.13
2022-11-13T06:41:54.082Z,101499.71
2022-11-13T06:46:57.596Z,101499.85
2022-11-13T06:52:00.701Z,101496.09
2022-11-13T06:57:04.014Z,101495.05
2022-11-13T07:02:07.120Z,101495.84
2022-11-13T07:07:10.463Z,101500.13
2022-11-13T07:12:13.848Z,101502.14
2022-11-13T07:17:17.255Z,101510.73
2022-11-13T07:22:20.668Z,101507.33
2022-11-13T07:27:24.185Z,101512.48
2022-11-13T07:32:27.495Z,101516.44
2022-11-13T07:37:30.808Z,101519.13
2022-11-13T07:42:34.222Z,101519.55
2022-11-13T07:47:37.941Z,101513.34
2022-11-13T07:52:41.257Z,101518.95
2022-11-13T07:57:44.459Z,101521.20
2022-11-13T08:02:48.181Z,101522.27
2022-11-13T08:07:52.822Z,101530.06
2022-11-13T08:13:04.456Z,101539.14
2022-11-13T08:18:07.739Z,101540.50
2022-11-13T08:23:10.947Z,101538.81
2022-11-13T08:28:14.977Z,101534.77
2022-11-13T08:33:18.287Z,101535.68
2022-11-13T08:38:21.800Z,101534.17
2022-11-13T08:43:25.728Z,101532.17
2022-11-13T08:48:29.135Z,101524.27
2022-11-13T08:53:32.859Z,101522.11
2022-11-13T08:58:36.177Z,101527.33
2022-11-13T09:03:39.423Z,101531.00
2022-11-13T09:08:42.790Z,101531.00
2022-11-13T09:13:50.643Z,101529.65
2022-11-13T09:18:56.481Z,101532.77
2022-11-13T09:23:59.687Z,101531.95
2022-11-13T09:29:03.649Z,101527.52
2022-11-13T09:34:07.843Z,101527.33
2022-11-13T09:39:11.565Z,101520.91
2022-11-13T09:44:31.683Z,101524.35
2022-11-13T09:49:55.155Z,101526.06
2022-11-13T09:54:59.382Z,101524.09
2022-11-13T10:00:12.226Z,101523.10
2022-11-13T10:05:23.413Z,101512.27
2022-11-13T10:10:55.988Z,101504.08
2022-11-13T10:16:14.691Z,101510.47
2022-11-13T10:21:18.304Z,101509.11
2022-11-13T10:26:24.787Z,101511.04
2022-11-13T10:31:28.512Z,101507.11
2022-11-13T10:36:39.604Z,101507.67
2022-11-13T10:41:54.284Z,101510.80
2022-11-13T10:47:36.053Z,101510.02
2022-11-13T10:52:49.052Z,101511.46
2022-11-13T10:58:00.937Z,101514.67
2022-11-13T11:03:04.048Z,101509.04
2022-11-13T11:08:11.096Z,101509.94
2022-11-13T11:13:23.227Z,101502.07
2022-11-13T11:18:42.854Z,101500.07
2022-11-13T11:24:01.116Z,101502.45
2022-11-13T11:29:38.524Z,101495.30
2022-11-13T11:34:47.250Z,101498.59
2022-11-13T11:40:05.732Z,101503.25
2022-11-13T11:45:26.763Z,101497.20
2022-11-13T11:50:39.793Z,101497.70
2022-11-13T11:55:48.736Z,101493.84
2022-11-13T12:00:57.986Z,101495.91
2022-11-13T12:06:10.205Z,101490.66
2022-11-13T12:11:34.612Z,101486.01
2022-11-13T12:17:01.065Z,101476.25
2022-11-13T12:22:24.902Z,101467.21
2022-11-13T12:27:49.567Z,101459.14
2022-11-13T12:33:14.587Z,101461.42
2022-11-13T12:38:40.223Z,101454.20
2022-11-13T12:44:15.685Z,101455.72
2022-11-13T12:49:36.812Z,101455.53
2022-11-13T12:54:39.919Z,101445.33
2022-11-13T12:59:53.780Z,101438.23
2022-11-13T13:05:18.900Z,101435.89
2022-11-13T13:10:57.947Z,101437.13
2022-11-13T13:16:04.638Z,101435.59
2022-11-13T13:21:16.808Z,101428.29
2022-11-13T13:26:28.977Z,101423.41
2022-11-13T13:31:46.108Z,101421.48
2022-11-13T13:36:57.819Z,101424.14
2022-11-13T13:42:42.608Z,101429.24
2022-11-13T13:47:47.554Z,101429.04
2022-11-13T13:52:55.810Z,101428.79
2022-11-13T13:58:08.710Z,101435.59
2022-11-13T14:03:23.084Z,101437.02
2022-11-13T14:08:27.566Z,101430.73
2022-11-13T14:13:31.135Z,101431.17
2022-11-13T14:18:35.891Z,101429.39
2022-11-13T14:23:48.809Z,101422.06
2022-11-13T14:29:01.149Z,101422.80
2022-11-13T14:34:15.405Z,101407.66
2022-11-13T14:39:29.980Z,101405.42
2022-11-13T14:44:35.693Z,101397.14
2022-11-13T14:49:41.414Z,101394.04
2022-11-13T14:55:13.464Z,101384.23
2022-11-13T15:00:13.671Z,101382.74
2022-11-13T15:05:16.847Z,101376.36
2022-11-13T15:10:21.985Z,101373.48
2022-11-13T15:15:29.098Z,101366.80
2022-11-13T15:20:32.414Z,101359.05
2022-11-13T15:25:35.824Z,101347.07
2022-11-13T15:30:39.235Z,101340.32
2022-11-13T15:35:43.986Z,101343.00
2022-11-13T15:40:47.906Z,101338.23
2022-11-13T15:45:51.421Z,101339.38
2022-11-13T15:50:54.837Z,101344.92
2022-11-13T15:56:03.072Z,101342.10
2022-11-13T16:01:06.323Z,101352.86
2022-11-13T16:06:13.360Z,101351.48
2022-11-13T16:11:18.522Z,101353.30
2022-11-13T16:16:25.621Z,101365.16
2022-11-13T16:21:28.828Z,101375.05
2022-11-13T16:26:32.760Z,101374.00
2022-11-13T16:31:36.063Z,101379.54
2022-11-13T16:36:39.886Z,101378.03
2022-11-13T16:41:43.335Z,101376.92
2022-11-13T16:46:48.147Z,101379.20
2022-11-13T16:51:52.386Z,101378.58
2022-11-13T16:56:55.588Z,101389.20
2022-11-13T17:01:58.872Z,101387.76
2022-11-13T17:07:02.679Z,101391.13
2022-11-13T17:12:06.390Z,101394.34
2022-11-13T17:17:15.495Z,101390.36
2022-11-13T17:22:18.725Z,101396.51
2022-11-13T17:27:22.011Z,101396.59
2022-11-13T17:32:25.418Z,101393.00
2022-11-13T17:37:28.729Z,101389.90
2022-11-13T17:42:32.759Z,101390.39
2022-11-13T17:47:36.044Z,101386.84
2022-11-13T17:52:40.096Z,101382.52
2022-11-13T17:57:43.407Z,101381.50
2022-11-13T18:02:46.822Z,101381.13
2022-11-13T18:07:50.031Z,101381.02
2022-11-13T18:12:53.340Z,101380.67
2022-11-13T18:17:56.650Z,101378.55
2022-11-13T18:23:00.371Z,101385.11
2022-11-13T18:28:03.783Z,101391.29
2022-11-13T18:33:07.095Z,101386.71
2022-11-13T18:38:10.405Z,101382.21
2022-11-13T18:43:15.457Z,101387.00
2022-11-13T18:48:18.769Z,101389.58
2022-11-13T18:53:21.874Z,101388.95
2022-11-13T18:58:25.185Z,101383.18
2022-11-13T19:03:28.705Z,101384.61
2022-11-13T19:08:35.066Z,101384.67
2022-11-13T19:13:42.875Z,101375.41
2022-11-13T19:18:52.703Z,101369.55
2022-11-13T19:23:58.755Z,101375.27
2022-11-13T19:29:01.946Z,101370.56
2022-11-13T19:34:07.816Z,101373.83
2022-11-13T19:39:11.130Z,101376.09
2022-11-13T19:44:14.440Z,101373.06
2022-11-13T19:49:17.953Z,101363.68
2022-11-13T19:54:23.726Z,101365.06
2022-11-13T19:59:27.344Z,101368.31
2022-11-13T20:04:34.285Z,101371.35
2022-11-13T20:09:38.159Z,101363.45
2022-11-13T20:14:41.466Z,101362.83
2022-11-13T20:19:45.396Z,101364.22
2022-11-13T20:24:48.710Z,101359.80
2022-11-13T20:29:52.019Z,101361.39
2022-11-13T20:34:55.368Z,101358.84
2022-11-13T20:39:58.946Z,101356.91
2022-11-13T20:45:02.257Z,101353.41
2022-11-13T20:50:06.085Z,101349.63
2022-11-13T20:55:09.811Z,101348.63
2022-11-13T21:00:13.728Z,101348.52
2022-11-13T21:05:16.837Z,101348.37
2022-11-13T21:10:20.347Z,101346.18
2022-11-13T21:15:23.863Z,101340.14
2022-11-13T21:20:26.969Z,101338.81
2022-11-13T21:25:31.102Z,101330.97
2022-11-13T21:30:37.174Z,101336.13
2022-11-13T21:35:40.402Z,101335.58
2022-11-13T21:40:44.728Z,101337.09
2022-11-13T21:45:48.029Z,101326.50
2022-11-13T21:50:51.748Z,101330.02
2022-11-13T21:55:54.958Z,101331.73
2022-11-13T22:00:59.393Z,101330.96
2022-11-13T22:06:33.220Z,101330.60
2022-11-13T22:11:37.248Z,101328.07
2022-11-13T22:16:43.016Z,101328.73
2022-11-13T22:21:47.355Z,101331.95
2022-11-13T22:26:50.558Z,101324.59
2022-11-13T22:31:53.766Z,101325.45
2022-11-13T22:36:57.181Z,101315.58
2022-11-13T22:42:00.390Z,101316.11
2022-11-13T22:47:04.009Z,101312.77
2022-11-13T22:52:07.214Z,101303.24
2022-11-13T22:57:10.527Z,101298.70
2022-11-13T23:02:13.836Z,101304.20
2022-11-13T23:07:17.189Z,101294.27
2022-11-13T23:12:20.869Z,101293.05
2022-11-13T23:17:24.078Z,101290.64
2022-11-13T23:22:27.399Z,101284.35
2022-11-13T23:27:33.262Z,101281.98
2022-11-13T23:32:36.363Z,101275.17
2022-11-13T23:37:39.574Z,101268.92
2022-11-13T23:42:54.716Z,101265.16
2022-11-13T23:47:58.893Z,101263.06
2022-11-13T23:53:02.202Z,101260.42
2022-11-13T23:58:07.562Z,101253.33
